createdAt,value
2019-02-28T00:00:20.754Z,8.45
2019-02-28T00:02:50.121Z,7.70
2019-02-28T00:05:17.814Z,8.55
2019-02-28T00:07:45.584Z,8.18
2019-02-28T00:10:13.475Z,8.43
2019-02-28T00:12:41.273Z,8.05
2019-02-28T00:15:08.979Z,8.15
2019-02-28T00:17:36.881Z,8.48
2019-02-28T00:20:04.702Z,8.08
2019-02-28T00:22:34.049Z,7.95
2019-02-28T00:25:04.222Z,7.40
2019-02-28T00:27:32.967Z,8.05
2019-02-28T00:30:00.650Z,7.90
2019-02-28T00:32:28.313Z,7.58
2019-02-28T00:34:56.144Z,7.00
2019-02-28T00:37:24.690Z,6.83
2019-02-28T00:39:53.362Z,6.97
2019-02-28T00:42:20.935Z,7.10
2019-02-28T00:44:48.704Z,7.03
2019-02-28T00:47:17.079Z,7.12
2019-02-28T00:49:44.817Z,7.85
2019-02-28T00:52:12.500Z,7.62
2019-02-28T00:54:44.375Z,7.25
2019-02-28T00:57:09.785Z,6.80
2019-02-28T00:59:37.537Z,7.28
2019-02-28T01:02:05.228Z,6.40
2019-02-28T01:04:32.994Z,7.00
2019-02-28T01:07:00.689Z,7.42
2019-02-28T01:09:30.163Z,6.45
2019-02-28T01:11:58.279Z,7.20
2019-02-28T01:14:25.977Z,7.35
2019-02-28T01:16:53.725Z,6.28
2019-02-28T01:19:21.403Z,6.83
2019-02-28T01:21:49.166Z,7.40
2019-02-28T01:24:16.857Z,6.60
2019-02-28T01:26:46.680Z,6.42
2019-02-28T01:29:14.078Z,7.00
2019-02-28T01:31:42.543Z,6.85
2019-02-28T01:34:11.030Z,6.70
2019-02-28T01:36:38.762Z,6.25
2019-02-28T01:39:07.003Z,7.30
2019-02-28T01:41:34.801Z,7.20
2019-02-28T01:44:02.825Z,7.15
2019-02-28T01:46:30.674Z,6.83
2019-02-28T01:48:58.350Z,7.03
2019-02-28T01:51:26.115Z,7.83
2019-02-28T01:53:54.354Z,6.62
2019-02-28T01:56:22.313Z,7.87
2019-02-28T01:58:50.374Z,6.72
2019-02-28T02:01:18.793Z,6.62
2019-02-28T02:03:46.426Z,7.40
2019-02-28T02:06:14.077Z,6.47
2019-02-28T02:08:41.817Z,6.90
2019-02-28T02:11:09.469Z,6.72
2019-02-28T02:13:37.483Z,7.40
2019-02-28T02:16:05.304Z,7.30
2019-02-28T02:18:33.062Z,7.17
2019-02-28T02:21:00.909Z,7.33
2019-02-28T02:23:28.862Z,7.00
2019-02-28T02:25:56.641Z,7.10
2019-02-28T02:28:27.035Z,6.95
2019-02-28T02:30:54.082Z,6.67
2019-02-28T02:33:21.952Z,6.70
2019-02-28T02:35:49.706Z,7.33
2019-02-28T02:38:17.503Z,7.20
2019-02-28T02:40:45.190Z,7.15
2019-02-28T02:43:12.929Z,7.45
2019-02-28T02:45:43.485Z,7.72
2019-02-28T02:48:10.399Z,7.97
2019-02-28T02:50:38.067Z,6.97
2019-02-28T02:53:06.594Z,7.80
2019-02-28T02:55:34.482Z,7.37
2019-02-28T02:58:02.179Z,7.50
2019-02-28T03:00:29.933Z,8.08
2019-02-28T03:02:57.746Z,7.90
2019-02-28T03:05:25.571Z,7.95
2019-02-28T03:07:59.486Z,8.38
2019-02-28T03:10:22.799Z,7.05
2019-02-28T03:12:50.483Z,7.03
2019-02-28T03:15:24.834Z,8.30
2019-02-28T03:17:49.273Z,7.87
2019-02-28T03:20:17.179Z,8.28
2019-02-28T03:22:44.929Z,8.70
2019-02-28T03:25:12.911Z,8.23
2019-02-28T03:27:41.878Z,8.63
2019-02-28T03:30:12.106Z,7.60
2019-02-28T03:32:42.760Z,8.23
2019-02-28T03:35:10.885Z,8.90
2019-02-28T03:37:38.754Z,9.20
2019-02-28T03:40:07.316Z,9.55
2019-02-28T03:42:36.602Z,9.93
2019-02-28T03:45:05.186Z,10.18
2019-02-28T03:47:34.547Z,9.70
2019-02-28T03:50:02.435Z,9.15
2019-02-28T03:52:31.461Z,9.28
2019-02-28T03:55:03.237Z,9.15
2019-02-28T03:57:31.940Z,8.13
2019-02-28T03:59:59.792Z,8.33
2019-02-28T04:02:27.694Z,8.30
2019-02-28T04:04:55.393Z,9.53
2019-02-28T04:07:23.119Z,8.90
2019-02-28T04:09:50.976Z,8.68
2019-02-28T04:12:18.658Z,8.55
2019-02-28T04:14:46.532Z,9.33
2019-02-28T04:17:14.294Z,8.95
2019-02-28T04:19:42.007Z,8.55
2019-02-28T04:22:09.846Z,9.15
2019-02-28T04:24:37.535Z,8.50
2019-02-28T04:27:07.046Z,9.38
2019-02-28T04:29:34.890Z,8.05
2019-02-28T04:32:02.587Z,9.13
2019-02-28T04:34:30.295Z,9.10
2019-02-28T04:36:58.046Z,8.50
2019-02-28T04:39:25.801Z,9.03
2019-02-28T04:41:53.481Z,9.10
2019-02-28T04:44:21.232Z,8.43
2019-02-28T04:46:48.985Z,9.90
2019-02-28T04:49:21.777Z,8.85
2019-02-28T04:51:46.134Z,9.48
2019-02-28T04:54:13.854Z,8.45
2019-02-28T04:56:42.386Z,9.53
2019-02-28T04:59:11.083Z,8.80
2019-02-28T05:01:38.757Z,7.87
2019-02-28T05:04:06.512Z,7.95
2019-02-28T05:06:34.290Z,8.38
2019-02-28T05:09:02.209Z,9.18
2019-02-28T05:11:33.141Z,9.25
2019-02-28T05:14:01.106Z,9.30
2019-02-28T05:16:28.778Z,9.18
2019-02-28T05:18:58.243Z,9.38
2019-02-28T05:21:26.017Z,8.83
2019-02-28T05:23:53.655Z,9.20
2019-02-28T05:26:23.491Z,8.88
2019-02-28T05:28:50.929Z,8.30
2019-02-28T05:31:18.729Z,9.15
2019-02-28T05:33:46.562Z,8.90
2019-02-28T05:36:14.215Z,8.40
2019-02-28T05:38:41.985Z,9.08
2019-02-28T05:41:12.129Z,8.70
2019-02-28T05:43:39.210Z,9.20
2019-02-28T05:46:06.959Z,10.03
2019-02-28T05:48:35.328Z,8.43
2019-02-28T05:51:04.290Z,8.73
2019-02-28T05:53:31.972Z,9.55
2019-02-28T05:56:00.022Z,8.73
2019-02-28T05:58:28.025Z,9.38
2019-02-28T06:00:55.792Z,9.60
2019-02-28T06:03:23.570Z,9.13
2019-02-28T06:05:51.330Z,9.58
2019-02-28T06:08:19.073Z,7.60
2019-02-28T06:10:46.862Z,8.48
2019-02-28T06:13:15.286Z,8.50
2019-02-28T06:15:44.206Z,7.60
2019-02-28T06:18:11.908Z,8.63
2019-02-28T06:20:39.653Z,7.75
2019-02-28T06:23:09.294Z,8.28
2019-02-28T06:25:37.002Z,7.97
2019-02-28T06:28:04.691Z,8.70
2019-02-28T06:30:32.452Z,8.78
2019-02-28T06:33:00.134Z,8.40
2019-02-28T06:35:28.154Z,8.40
2019-02-28T06:37:55.922Z,8.48
2019-02-28T06:40:23.654Z,7.92
2019-02-28T06:42:52.107Z,7.95
2019-02-28T06:45:19.820Z,7.50
2019-02-28T06:47:49.546Z,7.42
2019-02-28T06:50:17.226Z,8.28
2019-02-28T06:52:45.197Z,7.95
2019-02-28T06:55:16.956Z,7.72
2019-02-28T06:57:46.289Z,8.85
2019-02-28T07:00:14.223Z,8.20
2019-02-28T07:02:44.474Z,7.60
2019-02-28T07:05:12.236Z,8.80
2019-02-28T07:07:39.973Z,8.78
2019-02-28T07:10:09.715Z,8.20
2019-02-28T07:12:40.076Z,7.10
2019-02-28T07:15:24.998Z,7.30
2019-02-28T07:17:52.923Z,7.97
2019-02-28T07:20:20.629Z,8.90
2019-02-28T07:22:48.398Z,9.35
2019-02-28T07:25:16.195Z,8.58
2019-02-28T07:27:44.141Z,8.75
2019-02-28T07:30:17.328Z,10.50
2019-02-28T07:32:44.201Z,8.43
2019-02-28T07:35:12.118Z,9.20
2019-02-28T07:37:39.925Z,9.33
2019-02-28T07:40:09.438Z,9.10
2019-02-28T07:42:38.779Z,10.10
2019-02-28T07:45:07.699Z,9.50
2019-02-28T07:47:37.005Z,8.88
2019-02-28T07:50:07.666Z,9.05
2019-02-28T07:52:37.253Z,9.48
2019-02-28T07:55:06.325Z,9.08
2019-02-28T07:57:35.614Z,8.80
2019-02-28T08:00:05.922Z,8.83
2019-02-28T08:02:35.624Z,10.15
2019-02-28T08:05:05.476Z,9.55
2019-02-28T08:07:34.769Z,9.65
2019-02-28T08:10:02.647Z,9.78
2019-02-28T08:12:31.937Z,9.78
2019-02-28T08:14:59.694Z,10.75
2019-02-28T08:17:27.461Z,9.78
2019-02-28T08:19:55.272Z,10.30
2019-02-28T08:22:24.238Z,9.30
2019-02-28T08:24:52.706Z,8.55
2019-02-28T08:27:20.465Z,9.30
2019-02-28T08:29:48.229Z,8.98
2019-02-28T08:32:15.913Z,9.45
2019-02-28T08:34:43.806Z,9.78
2019-02-28T08:37:11.575Z,9.15
2019-02-28T08:39:41.229Z,9.50
2019-02-28T08:42:09.005Z,8.90
2019-02-28T08:44:36.711Z,9.35
2019-02-28T08:47:04.542Z,8.85
2019-02-28T08:49:32.306Z,9.20
2019-02-28T08:52:02.574Z,8.70
2019-02-28T08:54:29.887Z,8.95
2019-02-28T08:56:57.732Z,9.08
2019-02-28T08:59:25.441Z,9.18
2019-02-28T09:01:53.312Z,10.30
2019-02-28T09:04:21.073Z,10.93
2019-02-28T09:06:48.823Z,11.08
2019-02-28T09:09:16.630Z,10.58
2019-02-28T09:11:44.368Z,11.00
2019-02-28T09:14:14.740Z,10.32
2019-02-28T09:16:41.857Z,10.53
2019-02-28T09:19:09.567Z,13.58
2019-02-28T09:21:37.232Z,10.40
2019-02-28T09:24:05.021Z,11.88
2019-02-28T09:26:32.873Z,10.95
2019-02-28T09:29:00.662Z,12.43
2019-02-28T09:31:28.341Z,12.40
2019-02-28T09:33:58.858Z,11.97
2019-02-28T09:36:25.777Z,12.13
2019-02-28T09:38:57.094Z,13.05
2019-02-28T09:41:23.114Z,12.47
2019-02-28T09:43:50.860Z,12.60
2019-02-28T09:46:18.858Z,13.50
2019-02-28T09:48:46.706Z,13.45
2019-02-28T09:51:14.394Z,11.73
2019-02-28T09:53:42.236Z,12.60
2019-02-28T09:56:10.160Z,13.13
2019-02-28T09:58:38.090Z,12.15
2019-02-28T10:01:05.828Z,13.00
2019-02-28T10:03:34.673Z,12.82
2019-02-28T10:06:02.498Z,14.55
2019-02-28T10:08:30.293Z,15.00
2019-02-28T10:10:58.141Z,13.28
2019-02-28T10:13:25.938Z,12.90
2019-02-28T10:15:53.847Z,12.40
2019-02-28T10:18:21.518Z,12.45
2019-02-28T10:20:49.381Z,12.43
2019-02-28T10:23:18.485Z,14.05
2019-02-28T10:25:46.716Z,12.78
2019-02-28T10:28:14.486Z,13.05
2019-02-28T10:30:42.270Z,10.90
2019-02-28T10:33:09.949Z,11.50
2019-02-28T10:35:37.813Z,11.00
2019-02-28T10:38:05.529Z,10.68
2019-02-28T10:40:33.397Z,12.00
2019-02-28T10:43:01.177Z,11.33
2019-02-28T10:45:28.955Z,10.72
2019-02-28T10:47:56.626Z,12.15
2019-02-28T10:50:25.910Z,12.45
2019-02-28T10:52:55.425Z,11.20
2019-02-28T10:55:23.453Z,12.00
2019-02-28T10:57:52.239Z,12.05
2019-02-28T11:00:23.222Z,11.53
2019-02-28T11:02:53.780Z,10.70
2019-02-28T11:05:27.353Z,11.90
2019-02-28T11:07:56.988Z,11.50
2019-02-28T11:10:35.154Z,11.55
2019-02-28T11:13:01.533Z,9.75
2019-02-28T11:15:31.049Z,10.08
2019-02-28T11:17:58.917Z,10.08
2019-02-28T11:20:27.123Z,10.38
2019-02-28T11:22:55.220Z,9.13
2019-02-28T11:25:24.665Z,9.30
2019-02-28T11:27:53.786Z,9.45
2019-02-28T11:30:22.764Z,11.10
2019-02-28T11:32:52.568Z,8.83
2019-02-28T11:35:23.258Z,10.70
2019-02-28T11:37:50.593Z,9.48
2019-02-28T11:40:18.687Z,8.95
2019-02-28T11:42:48.126Z,8.85
2019-02-28T11:45:18.619Z,9.05
2019-02-28T11:47:50.288Z,9.35
2019-02-28T11:50:19.557Z,8.73
2019-02-28T11:52:47.478Z,8.70
2019-02-28T11:55:16.868Z,8.65
2019-02-28T11:57:44.905Z,8.63
2019-02-28T12:00:14.917Z,8.60
2019-02-28T12:02:52.850Z,9.28
2019-02-28T12:05:15.611Z,8.85
2019-02-28T12:07:43.812Z,9.80
2019-02-28T12:10:11.704Z,9.68
2019-02-28T12:12:41.569Z,9.15
2019-02-28T12:15:10.933Z,7.42
2019-02-28T12:17:40.240Z,9.40
2019-02-28T12:20:09.480Z,7.67
2019-02-28T12:22:38.760Z,10.08
2019-02-28T12:25:09.590Z,9.28
2019-02-28T12:27:38.876Z,9.95
2019-02-28T12:30:13.589Z,9.25
2019-02-28T12:32:43.507Z,10.15
2019-02-28T12:35:12.482Z,8.50
2019-02-28T12:37:40.531Z,9.78
2019-02-28T12:40:11.178Z,8.95
2019-02-28T12:42:40.563Z,8.33
2019-02-28T12:45:12.241Z,10.00
2019-02-28T12:47:42.228Z,9.58
2019-02-28T12:50:10.741Z,9.25
2019-02-28T12:52:39.725Z,9.45
2019-02-28T12:55:09.752Z,9.90
2019-02-28T12:57:39.277Z,9.15
2019-02-28T13:00:10.940Z,9.88
2019-02-28T13:02:43.501Z,9.78
2019-02-28T13:05:14.868Z,8.90
2019-02-28T13:07:41.371Z,10.35
2019-02-28T13:10:11.316Z,10.28
2019-02-28T13:12:44.209Z,10.35
2019-02-28T13:15:13.067Z,10.82
2019-02-28T13:17:42.601Z,10.65
2019-02-28T13:20:15.614Z,11.33
2019-02-28T13:22:45.479Z,11.48
2019-02-28T13:25:13.347Z,12.55
2019-02-28T13:27:44.616Z,11.40
2019-02-28T13:30:15.315Z,10.68
2019-02-28T13:32:50.115Z,11.40
2019-02-28T13:35:23.851Z,10.78
2019-02-28T13:38:02.263Z,11.25
2019-02-28T13:40:32.469Z,10.28
2019-02-28T13:43:02.129Z,13.48
2019-02-28T13:45:33.322Z,12.23
2019-02-28T13:48:03.368Z,11.90
2019-02-28T13:50:32.485Z,10.30
2019-02-28T13:53:17.023Z,11.90
2019-02-28T13:55:32.902Z,11.53
2019-02-28T13:58:00.959Z,11.33
2019-02-28T14:00:28.930Z,11.03
2019-02-28T14:02:59.836Z,11.35
2019-02-28T14:05:29.161Z,11.63
2019-02-28T14:07:57.034Z,10.75
2019-02-28T14:10:24.884Z,12.03
2019-02-28T14:12:56.978Z,10.95
2019-02-28T14:15:28.932Z,11.83
2019-02-28T14:17:58.359Z,10.00
2019-02-28T14:20:27.590Z,10.50
2019-02-28T14:22:55.754Z,10.38
2019-02-28T14:25:25.071Z,10.95
2019-02-28T14:27:53.024Z,10.60
2019-02-28T14:30:22.759Z,11.68
2019-02-28T14:32:52.152Z,10.80
2019-02-28T14:35:22.938Z,10.88
2019-02-28T14:37:55.511Z,11.35
2019-02-28T14:40:21.794Z,9.53
2019-02-28T14:42:49.799Z,10.25
2019-02-28T14:45:18.453Z,10.45
2019-02-28T14:47:56.542Z,10.58
2019-02-28T14:50:19.988Z,11.08
2019-02-28T14:52:48.560Z,10.68
2019-02-28T14:55:17.902Z,10.70
2019-02-28T14:57:48.795Z,10.95
2019-02-28T15:00:18.377Z,10.50
2019-02-28T15:02:47.899Z,11.10
2019-02-28T15:05:16.607Z,12.00
2019-02-28T15:07:45.650Z,10.70
2019-02-28T15:10:15.448Z,10.05
2019-02-28T15:12:44.824Z,10.63
2019-02-28T15:15:17.972Z,9.90
2019-02-28T15:17:45.724Z,10.32
2019-02-28T15:20:14.330Z,10.85
2019-02-28T15:22:42.534Z,10.40
2019-02-28T15:25:12.023Z,9.85
2019-02-28T15:27:41.472Z,9.45
2019-02-28T15:30:12.169Z,8.83
2019-02-28T15:32:41.565Z,8.85
2019-02-28T15:35:12.448Z,9.45
2019-02-28T15:37:42.701Z,10.70
2019-02-28T15:40:13.358Z,11.75
2019-02-28T15:42:43.904Z,12.85
2019-02-28T15:45:12.104Z,14.43
2019-02-28T15:47:40.082Z,15.03
2019-02-28T15:50:09.938Z,15.25
2019-02-28T15:52:40.113Z,13.40
2019-02-28T15:55:08.601Z,15.08
2019-02-28T15:57:38.206Z,16.05
2019-02-28T16:00:08.385Z,15.95
2019-02-28T16:02:38.613Z,13.35
2019-02-28T16:05:08.408Z,15.68
2019-02-28T16:07:36.508Z,16.45
2019-02-28T16:10:04.599Z,16.30
2019-02-28T16:12:34.150Z,16.85
2019-02-28T16:15:02.042Z,17.00
2019-02-28T16:17:33.525Z,14.85
2019-02-28T16:20:01.197Z,17.35
2019-02-28T16:22:30.624Z,16.82
2019-02-28T16:24:58.391Z,16.73
2019-02-28T16:27:26.205Z,16.82
2019-02-28T16:29:55.616Z,16.45
2019-02-28T16:32:23.510Z,15.98
2019-02-28T16:34:51.377Z,15.25
2019-02-28T16:37:19.173Z,14.58
2019-02-28T16:39:49.087Z,16.00
2019-02-28T16:42:17.515Z,14.65
2019-02-28T16:44:45.473Z,17.05
2019-02-28T16:47:13.166Z,15.10
2019-02-28T16:49:41.390Z,15.38
2019-02-28T16:52:10.718Z,13.55
2019-02-28T16:54:38.508Z,12.75
2019-02-28T16:57:06.330Z,14.73
2019-02-28T16:59:34.145Z,14.35
2019-02-28T17:02:01.958Z,13.43
2019-02-28T17:04:29.898Z,13.08
2019-02-28T17:06:58.010Z,14.85
2019-02-28T17:09:35.595Z,14.60
2019-02-28T17:12:26.913Z,13.25
2019-02-28T17:14:54.935Z,11.78
2019-02-28T17:17:33.546Z,11.85
2019-02-28T17:20:06.354Z,11.33
2019-02-28T17:22:33.742Z,10.18
2019-02-28T17:25:01.549Z,10.50
2019-02-28T17:27:53.477Z,10.80
2019-02-28T17:30:40.764Z,11.25
2019-02-28T17:33:10.117Z,11.10
2019-02-28T17:35:37.970Z,11.70
2019-02-28T17:38:05.822Z,12.25
2019-02-28T17:40:33.631Z,12.00
2019-02-28T17:43:01.411Z,8.35
2019-02-28T17:45:32.064Z,10.65
2019-02-28T17:48:31.686Z,11.60
2019-02-28T17:51:37.775Z,11.43
2019-02-28T17:54:20.757Z,10.75
2019-02-28T17:57:48.744Z,11.90
2019-02-28T18:00:41.075Z,12.40
2019-02-28T18:03:44.969Z,14.83
2019-02-28T18:06:53.859Z,14.85
2019-02-28T18:09:50.118Z,14.63
2019-02-28T18:12:52.035Z,15.50
2019-02-28T18:15:32.542Z,15.00
2019-02-28T18:18:46.759Z,15.60
2019-02-28T18:21:43.935Z,14.30
2019-02-28T18:24:54.277Z,13.62
2019-02-28T18:27:55.345Z,14.35
2019-02-28T18:31:09.288Z,13.13
2019-02-28T18:33:45.116Z,11.40
2019-02-28T18:36:17.255Z,11.35
2019-02-28T18:38:46.662Z,9.68
2019-02-28T18:41:14.397Z,8.15
2019-02-28T18:43:42.408Z,9.28
2019-02-28T18:46:10.219Z,7.60
2019-02-28T18:48:38.025Z,7.65
2019-02-28T18:51:05.941Z,8.75
2019-02-28T18:53:33.772Z,7.58
2019-02-28T18:56:01.674Z,7.33
2019-02-28T18:58:29.542Z,6.78
2019-02-28T19:00:57.601Z,8.00
2019-02-28T19:03:25.552Z,7.20
2019-02-28T19:05:53.511Z,6.78
2019-02-28T19:08:21.272Z,5.75
2019-02-28T19:10:49.147Z,5.90
2019-02-28T19:13:16.981Z,6.60
2019-02-28T19:15:45.263Z,5.85
2019-02-28T19:18:13.135Z,5.22
2019-02-28T19:20:41.008Z,4.62
2019-02-28T19:23:08.785Z,5.20
2019-02-28T19:25:36.643Z,4.10
2019-02-28T19:28:04.528Z,4.70
2019-02-28T19:30:32.433Z,4.47
2019-02-28T19:33:00.371Z,4.70
2019-02-28T19:35:28.288Z,5.25
2019-02-28T19:37:56.189Z,4.60
2019-02-28T19:40:24.103Z,5.85
2019-02-28T19:42:52.132Z,4.37
2019-02-28T19:45:20.024Z,4.60
2019-02-28T19:47:49.482Z,5.30
2019-02-28T19:50:17.305Z,4.15
2019-02-28T19:52:45.389Z,4.45
2019-02-28T19:55:13.336Z,3.87
2019-02-28T19:57:41.357Z,4.37
2019-02-28T20:00:11.720Z,4.70
2019-02-28T20:02:41.187Z,4.17
2019-02-28T20:05:09.241Z,3.67
2019-02-28T20:07:37.639Z,3.65
2019-02-28T20:10:07.567Z,3.98
2019-02-28T20:12:36.985Z,4.20
2019-02-28T20:15:05.176Z,3.92
2019-02-28T20:17:34.617Z,4.47
2019-02-28T20:20:03.997Z,4.40
2019-02-28T20:22:35.425Z,4.33
2019-02-28T20:25:04.525Z,4.20
2019-02-28T20:27:33.858Z,4.37
2019-02-28T20:30:01.735Z,3.72
2019-02-28T20:32:31.097Z,4.33
2019-02-28T20:34:58.966Z,4.37
2019-02-28T20:37:26.851Z,4.25
2019-02-28T20:39:54.925Z,4.83
2019-02-28T20:42:22.686Z,3.60
2019-02-28T20:44:50.575Z,4.20
2019-02-28T20:47:18.351Z,3.90
2019-02-28T20:49:46.214Z,4.72
2019-02-28T20:52:14.079Z,3.67
2019-02-28T20:54:41.890Z,3.52
2019-02-28T20:57:09.755Z,4.25
2019-02-28T20:59:37.527Z,3.98
2019-02-28T21:02:05.351Z,3.58
2019-02-28T21:04:33.237Z,3.40
2019-02-28T21:07:01.008Z,3.80
2019-02-28T21:09:29.978Z,3.02
2019-02-28T21:11:57.833Z,3.25
2019-02-28T21:14:25.684Z,3.75
2019-02-28T21:16:53.559Z,3.00
2019-02-28T21:19:21.327Z,4.10
2019-02-28T21:21:49.142Z,4.00
2019-02-28T21:24:16.874Z,3.60
2019-02-28T21:26:44.691Z,3.02
2019-02-28T21:29:12.497Z,3.47
2019-02-28T21:31:40.207Z,4.40
2019-02-28T21:34:08.062Z,3.47
2019-02-28T21:36:36.073Z,3.40
2019-02-28T21:39:06.352Z,4.30
2019-02-28T21:41:34.730Z,4.00
2019-02-28T21:44:02.554Z,3.67
2019-02-28T21:46:30.349Z,3.98
2019-02-28T21:48:58.102Z,3.35
2019-02-28T21:51:25.952Z,3.10
2019-02-28T21:53:53.650Z,4.40
2019-02-28T21:56:21.466Z,3.80
2019-02-28T21:58:49.236Z,3.10
2019-02-28T22:01:17.015Z,3.72
2019-02-28T22:03:44.704Z,4.03
2019-02-28T22:06:12.605Z,3.40
2019-02-28T22:08:40.390Z,3.30
2019-02-28T22:11:08.145Z,3.65
2019-02-28T22:13:36.016Z,3.40
2019-02-28T22:16:03.830Z,3.52
2019-02-28T22:18:31.722Z,3.33
2019-02-28T22:20:59.429Z,3.52
2019-02-28T22:23:27.214Z,3.40
2019-02-28T22:25:54.999Z,3.75
2019-02-28T22:28:22.787Z,3.35
2019-02-28T22:30:58.232Z,2.87
2019-02-28T22:33:49.487Z,3.02
2019-02-28T22:36:22.748Z,3.37
2019-02-28T22:38:52.154Z,3.52
2019-02-28T22:41:19.948Z,3.40
2019-02-28T22:43:47.689Z,2.67
2019-02-28T22:46:15.397Z,2.70
2019-02-28T22:48:43.152Z,3.08
2019-02-28T22:51:10.928Z,2.80
2019-02-28T22:53:38.682Z,3.05
2019-02-28T22:56:06.469Z,2.83
2019-02-28T22:58:34.435Z,2.85
2019-02-28T23:01:09.205Z,2.30
2019-02-28T23:03:38.749Z,2.90
2019-02-28T23:06:06.793Z,2.55
2019-02-28T23:08:34.197Z,3.10
2019-02-28T23:11:02.129Z,2.60
2019-02-28T23:13:30.306Z,2.22
2019-02-28T23:15:58.453Z,2.20
2019-02-28T23:18:26.156Z,2.10
2019-02-28T23:20:54.041Z,2.55
2019-02-28T23:23:21.816Z,2.12
2019-02-28T23:25:49.659Z,2.45
2019-02-28T23:28:31.770Z,2.37
2019-02-28T23:31:45.366Z,3.37
2019-02-28T23:34:33.460Z,2.10
2019-02-28T23:37:02.165Z,2.75
2019-02-28T23:39:30.012Z,3.27
2019-02-28T23:41:57.879Z,3.00
2019-02-28T23:44:25.551Z,3.20
2019-02-28T23:46:53.413Z,3.60
2019-02-28T23:49:21.208Z,2.95
2019-02-28T23:51:49.150Z,2.87
2019-02-28T23:54:16.964Z,3.47
2019-02-28T23:56:44.756Z,3.33
2019-02-28T23:59:12.443Z,3.58
